sensor_id;sensor_type;location;lat;lon;timestamp;temperature;humidity
18297;DHT22;18066;52.106;5.534;2022-11-20T00:00:38;-0.30;99.90
18297;DHT22;18066;52.106;5.534;2022-11-20T00:03:06;-0.30;99.90
18297;DHT22;18066;52.106;5.534;2022-11-20T00:05:33;-0.30;99.90
18297;DHT22;18066;52.106;5.534;2022-11-20T00:07:59;-0.30;99.90
18297;DHT22;18066;52.106;5.534;2022-11-20T00:10:26;-0.30;99.90
18297;DHT22;18066;52.106;5.534;2022-11-20T00:12:53;-0.20;99.90
18297;DHT22;18066;52.106;5.534;2022-11-20T00:15:20;-0.30;99.90
18297;DHT22;18066;52.106;5.534;2022-11-20T00:17:46;-0.40;99.90
18297;DHT22;18066;52.106;5.534;2022-11-20T00:20:15;-0.40;99.90
18297;DHT22;18066;52.106;5.534;2022-11-20T00:22:41;-0.40;99.90
18297;DHT22;18066;52.106;5.534;2022-11-20T00:25:08;-0.40;99.90
18297;DHT22;18066;52.106;5.534;2022-11-20T00:27:35;-0.40;99.90
18297;DHT22;18066;52.106;5.534;2022-11-20T00:30:03;-0.40;99.90
18297;DHT22;18066;52.106;5.534;2022-11-20T00:32:30;-0.50;99.90
18297;DHT22;18066;52.106;5.534;2022-11-20T00:34:56;-0.60;99.90
18297;DHT22;18066;52.106;5.534;2022-11-20T00:37:25;-0.60;99.90
18297;DHT22;18066;52.106;5.534;2022-11-20T00:39:52;-0.50;99.90
18297;DHT22;18066;52.106;5.534;2022-11-20T00:42:19;-0.50;99.90
18297;DHT22;18066;52.106;5.534;2022-11-20T00:44:45;-0.40;99.90
18297;DHT22;18066;52.106;5.534;2022-11-20T00:47:12;-0.30;99.90
18297;DHT22;18066;52.106;5.534;2022-11-20T00:49:39;-0.30;99.90
18297;DHT22;18066;52.106;5.534;2022-11-20T00:52:05;-0.30;99.90
18297;DHT22;18066;52.106;5.534;2022-11-20T00:54:33;-0.30;99.90
18297;DHT22;18066;52.106;5.534;2022-11-20T00:57:00;-0.30;99.90
18297;DHT22;18066;52.106;5.534;2022-11-20T00:59:27;-0.30;99.90
18297;DHT22;18066;52.106;5.534;2022-11-20T01:01:53;-0.30;99.90
18297;DHT22;18066;52.106;5.534;2022-11-20T01:04:20;-0.30;99.90
18297;DHT22;18066;52.106;5.534;2022-11-20T01:06:47;-0.30;99.90
18297;DHT22;18066;52.106;5.534;2022-11-20T01:09:14;-0.30;99.90
18297;DHT22;18066;52.106;5.534;2022-11-20T01:11:43;-0.30;99.90
18297;DHT22;18066;52.106;5.534;2022-11-20T01:14:11;-0.30;99.90
18297;DHT22;18066;52.106;5.534;2022-11-20T01:16:40;-0.30;99.90
18297;DHT22;18066;52.106;5.534;2022-11-20T01:19:10;-0.30;99.90
18297;DHT22;18066;52.106;5.534;2022-11-20T01:21:38;-0.30;99.90
18297;DHT22;18066;52.106;5.534;2022-11-20T01:24:07;-0.30;99.90
18297;DHT22;18066;52.106;5.534;2022-11-20T01:26:36;-0.40;99.90
18297;DHT22;18066;52.106;5.534;2022-11-20T01:29:05;-0.40;99.90
18297;DHT22;18066;52.106;5.534;2022-11-20T01:31:34;-0.40;99.90
18297;DHT22;18066;52.106;5.534;2022-11-20T01:34:03;-0.50;99.90
18297;DHT22;18066;52.106;5.534;2022-11-20T01:36:31;-0.60;99.90
18297;DHT22;18066;52.106;5.534;2022-11-20T01:39:00;-0.70;99.90
18297;DHT22;18066;52.106;5.534;2022-11-20T01:41:29;-0.80;99.90
18297;DHT22;18066;52.106;5.534;2022-11-20T01:44:18;-0.70;99.90
18297;DHT22;18066;52.106;5.534;2022-11-20T01:46:52;-0.60;99.90
18297;DHT22;18066;52.106;5.534;2022-11-20T01:49:25;-0.70;99.90
18297;DHT22;18066;52.106;5.534;2022-11-20T01:51:56;-0.70;99.90
18297;DHT22;18066;52.106;5.534;2022-11-20T01:54:27;-0.70;99.90
18297;DHT22;18066;52.106;5.534;2022-11-20T01:56:57;-0.60;99.90
18297;DHT22;18066;52.106;5.534;2022-11-20T01:59:28;-0.50;99.90
18297;DHT22;18066;52.106;5.534;2022-11-20T02:01:55;-0.50;99.90
18297;DHT22;18066;52.106;5.534;2022-11-20T02:04:23;-0.70;99.90
18297;DHT22;18066;52.106;5.534;2022-11-20T02:06:53;-0.70;99.90
18297;DHT22;18066;52.106;5.534;2022-11-20T02:09:21;-0.70;99.90
18297;DHT22;18066;52.106;5.534;2022-11-20T02:11:48;-0.70;99.90
18297;DHT22;18066;52.106;5.534;2022-11-20T02:14:15;-0.60;99.90
18297;DHT22;18066;52.106;5.534;2022-11-20T02:16:45;-0.60;99.90
18297;DHT22;18066;52.106;5.534;2022-11-20T02:19:19;-0.70;99.90
18297;DHT22;18066;52.106;5.534;2022-11-20T02:21:55;-0.60;99.90
18297;DHT22;18066;52.106;5.534;2022-11-20T02:24:24;-0.60;99.90
18297;DHT22;18066;52.106;5.534;2022-11-20T02:26:53;-0.50;99.90
18297;DHT22;18066;52.106;5.534;2022-11-20T02:29:24;-0.50;99.90
18297;DHT22;18066;52.106;5.534;2022-11-20T02:31:52;-0.70;99.90
18297;DHT22;18066;52.106;5.534;2022-11-20T02:34:20;-0.90;99.90
18297;DHT22;18066;52.106;5.534;2022-11-20T02:36:48;-0.90;99.90
18297;DHT22;18066;52.106;5.534;2022-11-20T02:39:15;-0.90;99.90
18297;DHT22;18066;52.106;5.534;2022-11-20T02:41:44;-0.80;99.90
18297;DHT22;18066;52.106;5.534;2022-11-20T02:44:11;-0.80;99.90
18297;DHT22;18066;52.106;5.534;2022-11-20T02:46:38;-0.90;99.90
18297;DHT22;18066;52.106;5.534;2022-11-20T02:49:05;-1.00;99.90
18297;DHT22;18066;52.106;5.534;2022-11-20T02:51:32;-1.10;99.90
18297;DHT22;18066;52.106;5.534;2022-11-20T02:53:59;-1.20;99.90
18297;DHT22;18066;52.106;5.534;2022-11-20T02:56:26;-1.20;99.90
18297;DHT22;18066;52.106;5.534;2022-11-20T02:58:54;-1.10;99.90
18297;DHT22;18066;52.106;5.534;2022-11-20T03:01:21;-1.10;99.90
18297;DHT22;18066;52.106;5.534;2022-11-20T03:03:48;-1.00;99.90
18297;DHT22;18066;52.106;5.534;2022-11-20T03:06:15;-1.00;99.90
18297;DHT22;18066;52.106;5.534;2022-11-20T03:08:42;-1.10;99.90
18297;DHT22;18066;52.106;5.534;2022-11-20T03:11:09;-1.10;99.90
18297;DHT22;18066;52.106;5.534;2022-11-20T03:13:35;-1.10;99.90
18297;DHT22;18066;52.106;5.534;2022-11-20T03:16:11;-1.10;99.90
18297;DHT22;18066;52.106;5.534;2022-11-20T03:18:39;-1.00;99.90
18297;DHT22;18066;52.106;5.534;2022-11-20T03:21:06;-1.10;99.90
18297;DHT22;18066;52.106;5.534;2022-11-20T03:23:33;-1.00;99.90
18297;DHT22;18066;52.106;5.534;2022-11-20T03:26:12;-1.00;99.90
18297;DHT22;18066;52.106;5.534;2022-11-20T03:28:39;-0.90;99.90
18297;DHT22;18066;52.106;5.534;2022-11-20T03:31:12;-1.00;99.90
18297;DHT22;18066;52.106;5.534;2022-11-20T03:33:39;-1.00;99.90
18297;DHT22;18066;52.106;5.534;2022-11-20T03:36:08;-1.10;99.90
18297;DHT22;18066;52.106;5.534;2022-11-20T03:38:35;-1.00;99.90
18297;DHT22;18066;52.106;5.534;2022-11-20T03:41:04;-1.00;99.90
18297;DHT22;18066;52.106;5.534;2022-11-20T03:43:31;-1.00;99.90
18297;DHT22;18066;52.106;5.534;2022-11-20T03:45:58;-1.00;99.90
18297;DHT22;18066;52.106;5.534;2022-11-20T03:48:27;-1.10;99.90
18297;DHT22;18066;52.106;5.534;2022-11-20T03:51:06;-1.00;99.90
18297;DHT22;18066;52.106;5.534;2022-11-20T03:53:33;-1.10;99.90
18297;DHT22;18066;52.106;5.534;2022-11-20T03:56:00;-1.10;99.90
18297;DHT22;18066;52.106;5.534;2022-11-20T03:58:27;-1.10;99.90
18297;DHT22;18066;52.106;5.534;2022-11-20T04:00:53;-1.00;99.90
18297;DHT22;18066;52.106;5.534;2022-11-20T04:03:20;-1.10;99.90
18297;DHT22;18066;52.106;5.534;2022-11-20T04:05:48;-1.20;99.90
18297;DHT22;18066;52.106;5.534;2022-11-20T04:08:15;-1.20;99.90
18297;DHT22;18066;52.106;5.534;2022-11-20T04:10:41;-1.20;99.90
18297;DHT22;18066;52.106;5.534;2022-11-20T04:13:08;-1.20;99.90
18297;DHT22;18066;52.106;5.534;2022-11-20T04:15:35;-1.30;99.90
18297;DHT22;18066;52.106;5.534;2022-11-20T04:18:02;-1.20;99.90
18297;DHT22;18066;52.106;5.534;2022-11-20T04:20:28;-1.20;99.90
18297;DHT22;18066;52.106;5.534;2022-11-20T04:22:57;-1.20;99.90
18297;DHT22;18066;52.106;5.534;2022-11-20T04:25:23;-1.30;99.90
18297;DHT22;18066;52.106;5.534;2022-11-20T04:27:50;-1.40;99.90
18297;DHT22;18066;52.106;5.534;2022-11-20T04:30:17;-1.50;99.90
18297;DHT22;18066;52.106;5.534;2022-11-20T04:32:44;-1.50;99.90
18297;DHT22;18066;52.106;5.534;2022-11-20T04:35:10;-1.50;99.90
18297;DHT22;18066;52.106;5.534;2022-11-20T04:37:37;-1.70;99.90
18297;DHT22;18066;52.106;5.534;2022-11-20T04:40:06;-1.70;99.90
18297;DHT22;18066;52.106;5.534;2022-11-20T04:42:32;-1.70;99.90
18297;DHT22;18066;52.106;5.534;2022-11-20T04:44:59;-1.60;99.90
18297;DHT22;18066;52.106;5.534;2022-11-20T04:47:26;-1.50;99.90
18297;DHT22;18066;52.106;5.534;2022-11-20T04:49:53;-1.60;99.90
18297;DHT22;18066;52.106;5.534;2022-11-20T04:52:19;-1.50;99.90
18297;DHT22;18066;52.106;5.534;2022-11-20T04:54:46;-1.50;99.90
18297;DHT22;18066;52.106;5.534;2022-11-20T04:57:15;-1.60;99.90
18297;DHT22;18066;52.106;5.534;2022-11-20T04:59:41;-1.70;99.90
18297;DHT22;18066;52.106;5.534;2022-11-20T05:02:09;-1.90;99.90
18297;DHT22;18066;52.106;5.534;2022-11-20T05:04:35;-1.90;99.90
18297;DHT22;18066;52.106;5.534;2022-11-20T05:07:02;-1.80;99.90
18297;DHT22;18066;52.106;5.534;2022-11-20T05:09:29;-1.80;99.90
18297;DHT22;18066;52.106;5.534;2022-11-20T05:11:56;-1.80;99.90
18297;DHT22;18066;52.106;5.534;2022-11-20T05:14:24;-1.80;99.90
18297;DHT22;18066;52.106;5.534;2022-11-20T05:16:51;-1.70;99.90
18297;DHT22;18066;52.106;5.534;2022-11-20T05:19:18;-1.70;99.90
18297;DHT22;18066;52.106;5.534;2022-11-20T05:21:44;-1.70;99.90
18297;DHT22;18066;52.106;5.534;2022-11-20T05:24:11;-1.80;99.90
18297;DHT22;18066;52.106;5.534;2022-11-20T05:26:38;-1.70;99.90
18297;DHT22;18066;52.106;5.534;2022-11-20T05:29:04;-1.70;99.90
18297;DHT22;18066;52.106;5.534;2022-11-20T05:31:33;-1.60;99.90
18297;DHT22;18066;52.106;5.534;2022-11-20T05:33:59;-1.60;99.90
18297;DHT22;18066;52.106;5.534;2022-11-20T05:36:26;-1.70;99.90
18297;DHT22;18066;52.106;5.534;2022-11-20T05:38:53;-1.90;99.90
18297;DHT22;18066;52.106;5.534;2022-11-20T05:41:20;-2.10;99.90
18297;DHT22;18066;52.106;5.534;2022-11-20T05:43:48;-2.10;99.90
18297;DHT22;18066;52.106;5.534;2022-11-20T05:46:17;-2.00;99.90
18297;DHT22;18066;52.106;5.534;2022-11-20T05:48:46;-1.90;99.90
18297;DHT22;18066;52.106;5.534;2022-11-20T05:51:15;-1.80;99.90
18297;DHT22;18066;52.106;5.534;2022-11-20T05:53:42;-1.80;99.90
18297;DHT22;18066;52.106;5.534;2022-11-20T05:56:11;-1.80;99.90
18297;DHT22;18066;52.106;5.534;2022-11-20T05:58:38;-1.70;99.90
18297;DHT22;18066;52.106;5.534;2022-11-20T06:01:07;-1.70;99.90
18297;DHT22;18066;52.106;5.534;2022-11-20T06:03:34;-1.70;99.90
18297;DHT22;18066;52.106;5.534;2022-11-20T06:06:04;-1.70;99.90
18297;DHT22;18066;52.106;5.534;2022-11-20T06:08:31;-1.80;99.90
18297;DHT22;18066;52.106;5.534;2022-11-20T06:10:58;-1.80;99.90
18297;DHT22;18066;52.106;5.534;2022-11-20T06:13:25;-1.80;99.90
18297;DHT22;18066;52.106;5.534;2022-11-20T06:15:52;-1.80;99.90
18297;DHT22;18066;52.106;5.534;2022-11-20T06:18:19;-1.90;99.90
18297;DHT22;18066;52.106;5.534;2022-11-20T06:20:46;-1.90;99.90
18297;DHT22;18066;52.106;5.534;2022-11-20T06:23:14;-1.80;99.90
18297;DHT22;18066;52.106;5.534;2022-11-20T06:25:42;-1.70;99.90
18297;DHT22;18066;52.106;5.534;2022-11-20T06:28:09;-1.70;99.90
18297;DHT22;18066;52.106;5.534;2022-11-20T06:30:36;-1.80;99.90
18297;DHT22;18066;52.106;5.534;2022-11-20T06:33:03;-1.70;99.90
18297;DHT22;18066;52.106;5.534;2022-11-20T06:35:29;-1.80;99.90
18297;DHT22;18066;52.106;5.534;2022-11-20T06:37:56;-1.80;99.90
18297;DHT22;18066;52.106;5.534;2022-11-20T06:40:24;-1.80;99.90
18297;DHT22;18066;52.106;5.534;2022-11-20T06:42:53;-1.90;99.90
18297;DHT22;18066;52.106;5.534;2022-11-20T06:45:20;-1.80;99.90
18297;DHT22;18066;52.106;5.534;2022-11-20T06:47:47;-1.80;99.90
18297;DHT22;18066;52.106;5.534;2022-11-20T06:50:13;-2.00;99.90
18297;DHT22;18066;52.106;5.534;2022-11-20T06:52:40;-2.00;99.90
18297;DHT22;18066;52.106;5.534;2022-11-20T06:55:07;-1.90;99.90
18297;DHT22;18066;52.106;5.534;2022-11-20T06:57:35;-1.80;99.90
18297;DHT22;18066;52.106;5.534;2022-11-20T07:00:03;-1.80;99.90
18297;DHT22;18066;52.106;5.534;2022-11-20T07:02:29;-1.70;99.90
18297;DHT22;18066;52.106;5.534;2022-11-20T07:04:56;-1.60;99.90
18297;DHT22;18066;52.106;5.534;2022-11-20T07:07:23;-1.60;99.90
18297;DHT22;18066;52.106;5.534;2022-11-20T07:09:50;-1.60;99.90
18297;DHT22;18066;52.106;5.534;2022-11-20T07:12:16;-1.70;99.90
18297;DHT22;18066;52.106;5.534;2022-11-20T07:14:44;-1.70;99.90
18297;DHT22;18066;52.106;5.534;2022-11-20T07:17:11;-1.80;99.90
18297;DHT22;18066;52.106;5.534;2022-11-20T07:19:38;-1.70;99.90
18297;DHT22;18066;52.106;5.534;2022-11-20T07:22:05;-1.60;99.90
18297;DHT22;18066;52.106;5.534;2022-11-20T07:24:31;-1.60;99.90
18297;DHT22;18066;52.106;5.534;2022-11-20T07:26:58;-1.50;99.90
18297;DHT22;18066;52.106;5.534;2022-11-20T07:29:25;-1.60;99.90
18297;DHT22;18066;52.106;5.534;2022-11-20T07:31:53;-1.60;99.90
18297;DHT22;18066;52.106;5.534;2022-11-20T07:34:21;-1.60;99.90
18297;DHT22;18066;52.106;5.534;2022-11-20T07:36:47;-1.50;99.90
18297;DHT22;18066;52.106;5.534;2022-11-20T07:39:14;-1.40;99.90
18297;DHT22;18066;52.106;5.534;2022-11-20T07:41:41;-1.30;99.90
18297;DHT22;18066;52.106;5.534;2022-11-20T07:44:08;-1.30;99.90
18297;DHT22;18066;52.106;5.534;2022-11-20T07:46:34;-1.20;99.90
18297;DHT22;18066;52.106;5.534;2022-11-20T07:49:03;-1.10;99.90
18297;DHT22;18066;52.106;5.534;2022-11-20T07:51:29;-1.00;99.90
18297;DHT22;18066;52.106;5.534;2022-11-20T07:53:56;-0.90;99.90
18297;DHT22;18066;52.106;5.534;2022-11-20T07:56:23;-0.90;99.90
18297;DHT22;18066;52.106;5.534;2022-11-20T07:58:49;-0.80;99.90
18297;DHT22;18066;52.106;5.534;2022-11-20T08:01:16;-0.70;99.90
18297;DHT22;18066;52.106;5.534;2022-11-20T08:03:43;-0.60;99.90
18297;DHT22;18066;52.106;5.534;2022-11-20T08:06:11;-0.50;99.90
18297;DHT22;18066;52.106;5.534;2022-11-20T08:08:37;-0.50;99.90
18297;DHT22;18066;52.106;5.534;2022-11-20T08:11:05;-0.60;99.90
18297;DHT22;18066;52.106;5.534;2022-11-20T08:13:49;-0.50;99.90
18297;DHT22;18066;52.106;5.534;2022-11-20T08:16:33;-0.40;99.90
18297;DHT22;18066;52.106;5.534;2022-11-20T08:19:01;-0.40;99.90
18297;DHT22;18066;52.106;5.534;2022-11-20T08:21:30;-0.30;99.90
18297;DHT22;18066;52.106;5.534;2022-11-20T08:23:57;-0.20;99.90
18297;DHT22;18066;52.106;5.534;2022-11-20T08:26:24;0.00;99.90
18297;DHT22;18066;52.106;5.534;2022-11-20T08:28:53;0.00;99.90
18297;DHT22;18066;52.106;5.534;2022-11-20T08:31:21;0.10;99.90
18297;DHT22;18066;52.106;5.534;2022-11-20T08:33:47;0.20;99.90
18297;DHT22;18066;52.106;5.534;2022-11-20T08:36:14;0.40;99.90
18297;DHT22;18066;52.106;5.534;2022-11-20T08:38:46;0.50;99.90
18297;DHT22;18066;52.106;5.534;2022-11-20T08:41:13;0.60;99.90
18297;DHT22;18066;52.106;5.534;2022-11-20T08:43:54;0.60;99.90
18297;DHT22;18066;52.106;5.534;2022-11-20T08:46:21;0.70;99.90
18297;DHT22;18066;52.106;5.534;2022-11-20T08:48:49;0.80;99.90
18297;DHT22;18066;52.106;5.534;2022-11-20T08:51:16;0.90;99.90
18297;DHT22;18066;52.106;5.534;2022-11-20T08:53:44;0.90;99.90
18297;DHT22;18066;52.106;5.534;2022-11-20T08:56:11;1.00;99.90
18297;DHT22;18066;52.106;5.534;2022-11-20T08:58:38;1.00;99.90
18297;DHT22;18066;52.106;5.534;2022-11-20T09:01:05;1.10;99.90
18297;DHT22;18066;52.106;5.534;2022-11-20T09:03:32;1.20;99.90
18297;DHT22;18066;52.106;5.534;2022-11-20T09:06:00;1.30;99.90
18297;DHT22;18066;52.106;5.534;2022-11-20T09:08:27;1.40;99.90
18297;DHT22;18066;52.106;5.534;2022-11-20T09:10:56;1.40;99.90
18297;DHT22;18066;52.106;5.534;2022-11-20T09:13:24;1.50;99.90
18297;DHT22;18066;52.106;5.534;2022-11-20T09:15:54;1.50;99.90
18297;DHT22;18066;52.106;5.534;2022-11-20T09:18:21;1.60;99.90
18297;DHT22;18066;52.106;5.534;2022-11-20T09:20:48;1.60;99.90
18297;DHT22;18066;52.106;5.534;2022-11-20T09:23:15;1.70;99.90
18297;DHT22;18066;52.106;5.534;2022-11-20T09:25:43;1.50;99.90
18297;DHT22;18066;52.106;5.534;2022-11-20T09:28:11;1.40;99.90
18297;DHT22;18066;52.106;5.534;2022-11-20T09:30:37;1.30;99.90
18297;DHT22;18066;52.106;5.534;2022-11-20T09:33:04;1.30;99.90
18297;DHT22;18066;52.106;5.534;2022-11-20T09:35:31;1.40;99.90
18297;DHT22;18066;52.106;5.534;2022-11-20T09:38:03;1.50;99.90
18297;DHT22;18066;52.106;5.534;2022-11-20T09:40:30;1.60;99.90
18297;DHT22;18066;52.106;5.534;2022-11-20T09:43:00;1.70;99.90
18297;DHT22;18066;52.106;5.534;2022-11-20T09:45:44;1.90;99.90
18297;DHT22;18066;52.106;5.534;2022-11-20T09:48:25;2.10;99.90
18297;DHT22;18066;52.106;5.534;2022-11-20T09:50:59;2.30;99.90
18297;DHT22;18066;52.106;5.534;2022-11-20T09:53:35;2.40;99.90
18297;DHT22;18066;52.106;5.534;2022-11-20T09:56:09;2.50;99.90
18297;DHT22;18066;52.106;5.534;2022-11-20T09:58:40;2.60;99.90
18297;DHT22;18066;52.106;5.534;2022-11-20T10:01:12;2.70;99.90
18297;DHT22;18066;52.106;5.534;2022-11-20T10:03:48;2.70;99.90
18297;DHT22;18066;52.106;5.534;2022-11-20T10:06:18;2.80;99.90
18297;DHT22;18066;52.106;5.534;2022-11-20T10:08:54;2.80;99.90
18297;DHT22;18066;52.106;5.534;2022-11-20T10:11:33;2.90;99.90
18297;DHT22;18066;52.106;5.534;2022-11-20T10:14:07;3.00;99.90
18297;DHT22;18066;52.106;5.534;2022-11-20T10:16:46;3.00;99.90
18297;DHT22;18066;52.106;5.534;2022-11-20T10:19:29;3.00;99.90
18297;DHT22;18066;52.106;5.534;2022-11-20T10:22:04;3.10;99.90
18297;DHT22;18066;52.106;5.534;2022-11-20T10:24:55;3.10;99.90
18297;DHT22;18066;52.106;5.534;2022-11-20T10:30:25;3.20;99.90
18297;DHT22;18066;52.106;5.534;2022-11-20T10:32:57;3.20;99.90
18297;DHT22;18066;52.106;5.534;2022-11-20T10:35:28;3.30;99.90
18297;DHT22;18066;52.106;5.534;2022-11-20T10:37:59;3.20;99.90
18297;DHT22;18066;52.106;5.534;2022-11-20T10:40:32;3.30;99.90
18297;DHT22;18066;52.106;5.534;2022-11-20T10:43:02;3.30;99.90
18297;DHT22;18066;52.106;5.534;2022-11-20T10:45:40;3.30;99.90
18297;DHT22;18066;52.106;5.534;2022-11-20T10:48:16;3.40;99.90
18297;DHT22;18066;52.106;5.534;2022-11-20T10:50:57;3.50;99.90
18297;DHT22;18066;52.106;5.534;2022-11-20T10:53:40;3.60;99.90
18297;DHT22;18066;52.106;5.534;2022-11-20T10:56:15;3.70;99.90
18297;DHT22;18066;52.106;5.534;2022-11-20T10:58:48;3.80;99.90
18297;DHT22;18066;52.106;5.534;2022-11-20T11:01:17;3.80;99.90
18297;DHT22;18066;52.106;5.534;2022-11-20T11:03:45;3.80;99.90
18297;DHT22;18066;52.106;5.534;2022-11-20T11:06:17;3.90;99.90
18297;DHT22;18066;52.106;5.534;2022-11-20T11:08:47;4.00;99.90
18297;DHT22;18066;52.106;5.534;2022-11-20T11:11:21;4.00;99.90
18297;DHT22;18066;52.106;5.534;2022-11-20T11:13:49;4.10;99.90
18297;DHT22;18066;52.106;5.534;2022-11-20T11:16:21;4.10;99.90
18297;DHT22;18066;52.106;5.534;2022-11-20T11:18:49;4.10;99.90
18297;DHT22;18066;52.106;5.534;2022-11-20T11:21:22;4.20;99.90
18297;DHT22;18066;52.106;5.534;2022-11-20T11:23:58;4.40;99.90
18297;DHT22;18066;52.106;5.534;2022-11-20T11:26:25;4.50;99.90
18297;DHT22;18066;52.106;5.534;2022-11-20T11:28:54;4.60;99.90
18297;DHT22;18066;52.106;5.534;2022-11-20T11:31:25;4.60;99.90
18297;DHT22;18066;52.106;5.534;2022-11-20T11:34:04;4.70;99.90
18297;DHT22;18066;52.106;5.534;2022-11-20T11:36:33;4.70;99.90
18297;DHT22;18066;52.106;5.534;2022-11-20T11:39:02;4.70;99.90
18297;DHT22;18066;52.106;5.534;2022-11-20T11:41:31;4.70;99.90
18297;DHT22;18066;52.106;5.534;2022-11-20T11:44:03;4.80;99.90
18297;DHT22;18066;52.106;5.534;2022-11-20T11:46:58;4.70;99.90
18297;DHT22;18066;52.106;5.534;2022-11-20T11:49:26;4.70;99.90
18297;DHT22;18066;52.106;5.534;2022-11-20T11:52:02;4.70;99.90
18297;DHT22;18066;52.106;5.534;2022-11-20T11:54:35;4.70;99.90
18297;DHT22;18066;52.106;5.534;2022-11-20T11:57:07;4.70;99.90
18297;DHT22;18066;52.106;5.534;2022-11-20T11:59:44;4.70;99.90
18297;DHT22;18066;52.106;5.534;2022-11-20T12:02:24;4.60;99.90
18297;DHT22;18066;52.106;5.534;2022-11-20T12:04:57;4.70;99.90
18297;DHT22;18066;52.106;5.534;2022-11-20T12:07:38;4.70;99.90
18297;DHT22;18066;52.106;5.534;2022-11-20T12:10:15;4.70;99.90
18297;DHT22;18066;52.106;5.534;2022-11-20T12:12:44;4.60;99.90
18297;DHT22;18066;52.106;5.534;2022-11-20T12:15:19;4.60;99.90
18297;DHT22;18066;52.106;5.534;2022-11-20T12:17:49;4.70;99.90
18297;DHT22;18066;52.106;5.534;2022-11-20T12:20:17;4.70;99.90
18297;DHT22;18066;52.106;5.534;2022-11-20T12:22:50;4.80;99.90
18297;DHT22;18066;52.106;5.534;2022-11-20T12:25:22;4.80;99.90
18297;DHT22;18066;52.106;5.534;2022-11-20T12:30:57;4.90;99.90
18297;DHT22;18066;52.106;5.534;2022-11-20T12:33:45;4.90;99.90
18297;DHT22;18066;52.106;5.534;2022-11-20T12:36:22;4.90;99.90
18297;DHT22;18066;52.106;5.534;2022-11-20T12:39:12;4.90;99.90
18297;DHT22;18066;52.106;5.534;2022-11-20T12:41:53;4.80;99.90
18297;DHT22;18066;52.106;5.534;2022-11-20T12:44:57;4.70;99.90
18297;DHT22;18066;52.106;5.534;2022-11-20T12:47:54;4.60;99.90
18297;DHT22;18066;52.106;5.534;2022-11-20T12:50:32;4.50;99.90
18297;DHT22;18066;52.106;5.534;2022-11-20T12:53:05;4.60;99.90
18297;DHT22;18066;52.106;5.534;2022-11-20T12:55:42;4.60;99.90
18297;DHT22;18066;52.106;5.534;2022-11-20T12:58:19;4.60;99.90
18297;DHT22;18066;52.106;5.534;2022-11-20T13:00:56;4.70;99.90
18297;DHT22;18066;52.106;5.534;2022-11-20T13:03:41;4.70;99.90
18297;DHT22;18066;52.106;5.534;2022-11-20T13:06:13;4.70;99.90
18297;DHT22;18066;52.106;5.534;2022-11-20T13:08:45;4.70;99.90
18297;DHT22;18066;52.106;5.534;2022-11-20T13:11:18;4.70;99.90
18297;DHT22;18066;52.106;5.534;2022-11-20T13:14:04;4.70;99.90
18297;DHT22;18066;52.106;5.534;2022-11-20T13:16:38;4.80;99.90
18297;DHT22;18066;52.106;5.534;2022-11-20T13:19:10;4.80;99.90
18297;DHT22;18066;52.106;5.534;2022-11-20T13:21:40;4.90;99.90
18297;DHT22;18066;52.106;5.534;2022-11-20T13:24:22;4.90;99.90
18297;DHT22;18066;52.106;5.534;2022-11-20T13:27:00;4.90;99.90
18297;DHT22;18066;52.106;5.534;2022-11-20T13:29:27;4.90;99.90
18297;DHT22;18066;52.106;5.534;2022-11-20T13:32:02;4.80;99.90
18297;DHT22;18066;52.106;5.534;2022-11-20T13:34:31;4.80;99.90
18297;DHT22;18066;52.106;5.534;2022-11-20T13:36:59;4.80;99.90
18297;DHT22;18066;52.106;5.534;2022-11-20T13:39:32;4.90;99.90
18297;DHT22;18066;52.106;5.534;2022-11-20T13:42:00;4.90;99.90
18297;DHT22;18066;52.106;5.534;2022-11-20T13:44:31;4.90;99.90
18297;DHT22;18066;52.106;5.534;2022-11-20T13:47:00;4.90;99.90
18297;DHT22;18066;52.106;5.534;2022-11-20T13:49:31;4.80;99.90
18297;DHT22;18066;52.106;5.534;2022-11-20T13:52:08;4.80;99.90
18297;DHT22;18066;52.106;5.534;2022-11-20T13:55:05;4.70;99.90
18297;DHT22;18066;52.106;5.534;2022-11-20T13:58:00;4.70;99.90
18297;DHT22;18066;52.106;5.534;2022-11-20T14:00:28;4.60;99.90
18297;DHT22;18066;52.106;5.534;2022-11-20T14:03:02;4.60;99.90
18297;DHT22;18066;52.106;5.534;2022-11-20T14:05:36;4.60;99.90
18297;DHT22;18066;52.106;5.534;2022-11-20T14:08:03;4.70;99.90
18297;DHT22;18066;52.106;5.534;2022-11-20T14:10:32;4.70;99.90
18297;DHT22;18066;52.106;5.534;2022-11-20T14:13:10;4.70;99.90
18297;DHT22;18066;52.106;5.534;2022-11-20T14:15:37;4.70;99.90
18297;DHT22;18066;52.106;5.534;2022-11-20T14:18:12;4.70;99.90
18297;DHT22;18066;52.106;5.534;2022-11-20T14:20:39;4.60;99.90
18297;DHT22;18066;52.106;5.534;2022-11-20T14:23:09;4.60;99.90
18297;DHT22;18066;52.106;5.534;2022-11-20T14:25:42;4.70;99.90
18297;DHT22;18066;52.106;5.534;2022-11-20T14:28:24;4.70;99.90
18297;DHT22;18066;52.106;5.534;2022-11-20T14:30:52;4.80;99.90
18297;DHT22;18066;52.106;5.534;2022-11-20T14:33:19;4.90;99.90
18297;DHT22;18066;52.106;5.534;2022-11-20T14:35:51;4.90;99.90
18297;DHT22;18066;52.106;5.534;2022-11-20T14:38:21;4.90;99.90
18297;DHT22;18066;52.106;5.534;2022-11-20T14:40:50;4.90;99.90
18297;DHT22;18066;52.106;5.534;2022-11-20T14:43:20;4.90;99.90
18297;DHT22;18066;52.106;5.534;2022-11-20T14:46:00;4.80;99.90
18297;DHT22;18066;52.106;5.534;2022-11-20T14:48:30;4.70;99.90
18297;DHT22;18066;52.106;5.534;2022-11-20T14:50:58;4.70;99.90
18297;DHT22;18066;52.106;5.534;2022-11-20T14:53:25;4.80;99.90
18297;DHT22;18066;52.106;5.534;2022-11-20T14:55:58;4.90;99.90
18297;DHT22;18066;52.106;5.534;2022-11-20T14:58:27;4.90;99.90
18297;DHT22;18066;52.106;5.534;2022-11-20T15:00:55;4.80;99.90
18297;DHT22;18066;52.106;5.534;2022-11-20T15:03:22;4.80;99.90
18297;DHT22;18066;52.106;5.534;2022-11-20T15:05:50;4.80;99.90
18297;DHT22;18066;52.106;5.534;2022-11-20T15:08:17;4.80;99.90
18297;DHT22;18066;52.106;5.534;2022-11-20T15:10:49;4.80;99.90
18297;DHT22;18066;52.106;5.534;2022-11-20T15:13:23;4.80;99.90
18297;DHT22;18066;52.106;5.534;2022-11-20T15:15:52;4.80;99.90
18297;DHT22;18066;52.106;5.534;2022-11-20T15:18:22;4.80;99.90
18297;DHT22;18066;52.106;5.534;2022-11-20T15:20:50;4.80;99.90
18297;DHT22;18066;52.106;5.534;2022-11-20T15:23:18;4.70;99.90
18297;DHT22;18066;52.106;5.534;2022-11-20T15:25:46;4.90;99.90
18297;DHT22;18066;52.106;5.534;2022-11-20T15:28:18;4.80;99.90
18297;DHT22;18066;52.106;5.534;2022-11-20T15:30:46;4.90;99.90
18297;DHT22;18066;52.106;5.534;2022-11-20T15:33:13;4.80;99.90
18297;DHT22;18066;52.106;5.534;2022-11-20T15:35:40;4.80;99.90
18297;DHT22;18066;52.106;5.534;2022-11-20T15:38:07;4.70;99.90
18297;DHT22;18066;52.106;5.534;2022-11-20T15:40:34;4.70;99.90
18297;DHT22;18066;52.106;5.534;2022-11-20T15:43:01;4.70;99.90
18297;DHT22;18066;52.106;5.534;2022-11-20T15:45:36;4.70;99.90
18297;DHT22;18066;52.106;5.534;2022-11-20T15:48:05;4.80;99.90
18297;DHT22;18066;52.106;5.534;2022-11-20T15:50:37;4.80;99.90
18297;DHT22;18066;52.106;5.534;2022-11-20T15:53:04;4.80;99.90
18297;DHT22;18066;52.106;5.534;2022-11-20T15:55:31;4.80;99.90
18297;DHT22;18066;52.106;5.534;2022-11-20T15:57:58;4.80;99.90
18297;DHT22;18066;52.106;5.534;2022-11-20T16:00:25;4.90;99.90